Terminal Aerodrome Forecast
Issued by NWS Greer, SC

Home | Current Version | Previous Version | Text Only | Print | Product List | Glossary On
Versions: 1 2 3 4 5 6 7 8 9 10 11 12 13 14 15 16 17 18 19 20 21 22 23 24 25 26 27 28
374
FTUS42 KGSP 242145 AAC
TAFGSP
TAF AMD
KGSP 242145Z 2422/2518 18012G18KT P6SM SCT015 BKN035 OVC060
      TEMPO 2422/2424 VRB15G25KT 3SM +TSRA OVC015CB
     FM250000 21007KT P6SM VCSH BKN035
     FM250300 22007KT P6SM BKN040
     FM251200 24006KT P6SM BKN030 PROB30 2514/2518 4SM -SHRA BKN015=

USA.gov is the U.S. government's official web portal to all federal, state and local government web resources and services.